sensor_id;sensor_type;location;lat;lon;timestamp;pressure;altitude;pressure_sealevel;temperature;humidity
78671;BME280;68277;52.724;6.516;2023-03-20T00:01:59;101750.94;;;7.49;84.62
78671;BME280;68277;52.724;6.516;2023-03-20T00:04:32;101807.28;;;7.83;85.73
78671;BME280;68277;52.724;6.516;2023-03-20T00:07:11;101830.22;;;8.02;85.55
78671;BME280;68277;52.724;6.516;2023-03-20T00:09:37;101798.50;;;7.77;84.38
78671;BME280;68277;52.724;6.516;2023-03-20T00:12:25;101787.91;;;7.71;85.76
78671;BME280;68277;52.724;6.516;2023-03-20T00:14:53;101757.06;;;7.51;85.58
78671;BME280;68277;52.724;6.516;2023-03-20T00:17:41;101817.81;;;7.85;86.14
78671;BME280;68277;52.724;6.516;2023-03-20T00:20:39;101754.44;;;7.50;85.55
78671;BME280;68277;52.724;6.516;2023-03-20T00:23:07;101872.41;;;8.08;85.75
78671;BME280;68277;52.724;6.516;2023-03-20T00:25:45;101871.50;;;8.08;85.72
78671;BME280;68277;52.724;6.516;2023-03-20T00:28:44;101814.28;;;7.78;85.05
78671;BME280;68277;52.724;6.516;2023-03-20T00:31:37;101879.47;;;8.09;85.85
78671;BME280;68277;52.724;6.516;2023-03-20T00:37:22;101817.81;;;7.79;85.74
78671;BME280;68277;52.724;6.516;2023-03-20T00:39:52;101874.19;;;8.09;85.87
78671;BME280;68277;52.724;6.516;2023-03-20T00:42:21;101885.59;;;8.05;86.05
78671;BME280;68277;52.724;6.516;2023-03-20T00:45:11;101791.25;;;7.38;85.17
78671;BME280;68277;52.724;6.516;2023-03-20T00:47:47;101834.44;;;7.70;86.03
78671;BME280;68277;52.724;6.516;2023-03-20T00:50:27;101876.69;;;7.87;85.69
78671;BME280;68277;52.724;6.516;2023-03-20T00:52:57;101908.38;;;7.99;85.08
78671;BME280;68277;52.724;6.516;2023-03-20T00:55:41;101850.22;;;7.58;84.99
78671;BME280;68277;52.724;6.516;2023-03-20T00:58:10;101901.28;;;7.83;85.71
78671;BME280;68277;52.724;6.516;2023-03-20T01:00:40;101770.97;;;7.20;85.33
78671;BME280;68277;52.724;6.516;2023-03-20T01:03:19;101816.78;;;7.48;84.56
78671;BME280;68277;52.724;6.516;2023-03-20T01:06:05;101918.03;;;7.92;85.48
78671;BME280;68277;52.724;6.516;2023-03-20T01:08:31;101812.28;;;7.32;84.93
78671;BME280;68277;52.724;6.516;2023-03-20T01:11:20;101869.56;;;7.66;85.85
78671;BME280;68277;52.724;6.516;2023-03-20T01:13:53;101853.63;;;7.43;85.33
78671;BME280;68277;52.724;6.516;2023-03-20T01:16:23;101932.94;;;7.84;85.72
78671;BME280;68277;52.724;6.516;2023-03-20T01:18:50;101882.69;;;7.57;85.03
78671;BME280;68277;52.724;6.516;2023-03-20T01:21:24;101926.75;;;7.82;85.42
78671;BME280;68277;52.724;6.516;2023-03-20T01:23:55;101814.78;;;7.12;85.26
78671;BME280;68277;52.724;6.516;2023-03-20T01:29:00;101946.03;;;7.80;84.42
78671;BME280;68277;52.724;6.516;2023-03-20T01:31:33;101875.56;;;7.39;84.71
78671;BME280;68277;52.724;6.516;2023-03-20T01:34:09;101879.94;;;7.42;84.26
78671;BME280;68277;52.724;6.516;2023-03-20T01:37:28;101942.53;;;7.75;84.66
78671;BME280;68277;52.724;6.516;2023-03-20T01:40:15;101816.50;;;7.07;84.01
78671;BME280;68277;52.724;6.516;2023-03-20T01:42:45;101822.66;;;7.08;84.38
78671;BME280;68277;52.724;6.516;2023-03-20T01:45:34;101933.72;;;7.74;85.04
78671;BME280;68277;52.724;6.516;2023-03-20T01:51:38;101927.56;;;7.72;84.97
78671;BME280;68277;52.724;6.516;2023-03-20T01:57:38;101909.09;;;7.68;84.83
78671;BME280;68277;52.724;6.516;2023-03-20T02:00:24;101863.28;;;7.44;85.26
78671;BME280;68277;52.724;6.516;2023-03-20T02:02:59;101799.81;;;7.07;85.04
78671;BME280;68277;52.724;6.516;2023-03-20T02:05:54;101928.44;;;7.70;85.26
78671;BME280;68277;52.724;6.516;2023-03-20T02:08:40;101850.03;;;7.35;85.54
78671;BME280;68277;52.724;6.516;2023-03-20T02:11:30;101853.56;;;7.36;84.98
78671;BME280;68277;52.724;6.516;2023-03-20T02:13:58;101832.44;;;7.25;85.26
78671;BME280;68277;52.724;6.516;2023-03-20T02:16:41;101894.16;;;7.67;85.15
78671;BME280;68277;52.724;6.516;2023-03-20T02:19:35;101819.31;;;7.30;85.66
78671;BME280;68277;52.724;6.516;2023-03-20T02:22:21;101878.38;;;7.70;85.81
78671;BME280;68277;52.724;6.516;2023-03-20T02:27:33;101759.47;;;7.08;85.02
78671;BME280;68277;52.724;6.516;2023-03-20T02:47:07;101773.59;;;7.17;85.84
78671;BME280;68277;52.724;6.516;2023-03-20T02:55:53;101831.75;;;7.55;86.24
78671;BME280;68277;52.724;6.516;2023-03-20T02:58:27;101782.41;;;7.27;85.55
78671;BME280;68277;52.724;6.516;2023-03-20T03:01:30;101795.63;;;7.37;85.34
78671;BME280;68277;52.724;6.516;2023-03-20T03:03:59;101840.59;;;7.68;84.47
78671;BME280;68277;52.724;6.516;2023-03-20T03:06:29;101854.63;;;7.67;85.05
78671;BME280;68277;52.724;6.516;2023-03-20T03:12:15;101784.19;;;7.31;85.01
78671;BME280;68277;52.724;6.516;2023-03-20T03:14:54;101796.53;;;7.39;84.56
78671;BME280;68277;52.724;6.516;2023-03-20T03:17:34;101804.44;;;7.41;84.89
78671;BME280;68277;52.724;6.516;2023-03-20T03:20:20;101710.28;;;6.96;84.37
78671;BME280;68277;52.724;6.516;2023-03-20T03:23:00;101767.50;;;7.30;84.40
78671;BME280;68277;52.724;6.516;2023-03-20T03:25:44;101771.03;;;7.34;83.85
78671;BME280;68277;52.724;6.516;2023-03-20T03:28:30;101812.44;;;7.57;84.15
78671;BME280;68277;52.724;6.516;2023-03-20T03:31:18;101766.63;;;7.28;84.42
78671;BME280;68277;52.724;6.516;2023-03-20T03:33:52;101768.44;;;7.37;84.54
78671;BME280;68277;52.724;6.516;2023-03-20T03:37:00;101814.22;;;7.65;84.10
78671;BME280;68277;52.724;6.516;2023-03-20T03:43:12;101809.84;;;7.65;83.38
78671;BME280;68277;52.724;6.516;2023-03-20T03:46:02;101695.41;;;7.01;82.43
78671;BME280;68277;52.724;6.516;2023-03-20T03:48:55;101801.03;;;7.63;82.45
78671;BME280;68277;52.724;6.516;2023-03-20T03:54:49;101767.56;;;7.38;82.34
78671;BME280;68277;52.724;6.516;2023-03-20T03:57:36;101702.38;;;6.98;82.02
78671;BME280;68277;52.724;6.516;2023-03-20T04:00:29;101692.75;;;6.98;81.81
78671;BME280;68277;52.724;6.516;2023-03-20T04:06:12;101720.97;;;7.26;82.09
78671;BME280;68277;52.724;6.516;2023-03-20T04:08:50;101717.47;;;7.24;82.81
78671;BME280;68277;52.724;6.516;2023-03-20T04:11:22;101741.19;;;7.27;82.53
78671;BME280;68277;52.724;6.516;2023-03-20T04:13:57;101735.03;;;7.27;82.82
78671;BME280;68277;52.724;6.516;2023-03-20T04:16:23;101777.28;;;7.51;82.83
78671;BME280;68277;52.724;6.516;2023-03-20T04:18:57;101779.00;;;7.49;83.77
78671;BME280;68277;52.724;6.516;2023-03-20T04:21:42;101789.56;;;7.46;82.85
78671;BME280;68277;52.724;6.516;2023-03-20T04:24:32;101739.34;;;7.14;83.55
78671;BME280;68277;52.724;6.516;2023-03-20T04:27:01;101723.47;;;7.02;83.54
78671;BME280;68277;52.724;6.516;2023-03-20T04:29:41;101702.34;;;6.92;83.14
78671;BME280;68277;52.724;6.516;2023-03-20T04:32:47;101793.00;;;7.37;83.68
78671;BME280;68277;52.724;6.516;2023-03-20T04:36:06;101791.22;;;7.35;82.76
78671;BME280;68277;52.724;6.516;2023-03-20T04:38:44;101745.47;;;7.10;83.05
78671;BME280;68277;52.724;6.516;2023-03-20T04:41:29;101767.47;;;7.26;83.92
78671;BME280;68277;52.724;6.516;2023-03-20T04:44:07;101774.56;;;7.34;83.66
78671;BME280;68277;52.724;6.516;2023-03-20T04:46:46;101783.31;;;7.33;84.06
78671;BME280;68277;52.724;6.516;2023-03-20T04:50:00;101794.75;;;7.32;84.02
78671;BME280;68277;52.724;6.516;2023-03-20T04:56:38;101791.22;;;7.32;83.18
78671;BME280;68277;52.724;6.516;2023-03-20T04:59:45;101728.72;;;6.99;84.29
78671;BME280;68277;52.724;6.516;2023-03-20T05:05:22;101718.16;;;6.90;83.79
78671;BME280;68277;52.724;6.516;2023-03-20T05:08:01;101708.41;;;6.83;83.24
78671;BME280;68277;52.724;6.516;2023-03-20T05:10:35;101775.38;;;7.24;83.58
78671;BME280;68277;52.724;6.516;2023-03-20T05:13:34;101778.00;;;7.23;82.64
78671;BME280;68277;52.724;6.516;2023-03-20T05:16:31;101776.25;;;7.22;83.50
78671;BME280;68277;52.724;6.516;2023-03-20T05:19:25;101774.50;;;7.22;82.87
78671;BME280;68277;52.724;6.516;2023-03-20T05:22:09;101767.44;;;7.21;82.29
78671;BME280;68277;52.724;6.516;2023-03-20T05:25:01;101679.41;;;6.68;82.27
78671;BME280;68277;52.724;6.516;2023-03-20T05:27:46;101774.47;;;7.21;82.75
78671;BME280;68277;52.724;6.516;2023-03-20T05:30:43;101778.88;;;7.22;82.66
78671;BME280;68277;52.724;6.516;2023-03-20T05:33:37;101657.34;;;6.49;82.91
78671;BME280;68277;52.724;6.516;2023-03-20T05:36:42;101648.63;;;6.52;82.20
78671;BME280;68277;52.724;6.516;2023-03-20T05:39:26;101693.47;;;6.74;81.89
78671;BME280;68277;52.724;6.516;2023-03-20T05:42:11;101662.66;;;6.52;82.17
78671;BME280;68277;52.724;6.516;2023-03-20T05:44:56;101769.16;;;7.09;81.71
78671;BME280;68277;52.724;6.516;2023-03-20T05:47:42;101788.47;;;7.14;81.68
78671;BME280;68277;52.724;6.516;2023-03-20T05:50:42;101785.78;;;7.09;81.61
78671;BME280;68277;52.724;6.516;2023-03-20T05:53:15;101742.66;;;6.84;81.35
78671;BME280;68277;52.724;6.516;2023-03-20T05:56:08;101684.59;;;6.59;80.95
78671;BME280;68277;52.724;6.516;2023-03-20T05:58:36;101758.59;;;7.06;81.87
78671;BME280;68277;52.724;6.516;2023-03-20T06:01:21;101761.22;;;7.06;81.10
78671;BME280;68277;52.724;6.516;2023-03-20T06:04:21;101731.25;;;6.85;80.49
78671;BME280;68277;52.724;6.516;2023-03-20T06:07:03;101723.31;;;6.81;80.73
78671;BME280;68277;52.724;6.516;2023-03-20T06:09:29;101709.25;;;6.73;80.77
78671;BME280;68277;52.724;6.516;2023-03-20T06:11:55;101780.53;;;7.08;80.61
78671;BME280;68277;52.724;6.516;2023-03-20T06:14:21;101748.84;;;6.91;80.98
78671;BME280;68277;52.724;6.516;2023-03-20T06:16:55;101762.06;;;7.00;80.40
78671;BME280;68277;52.724;6.516;2023-03-20T06:19:21;101800.78;;;7.18;80.57
78671;BME280;68277;52.724;6.516;2023-03-20T06:21:48;101808.78;;;7.30;80.33
78671;BME280;68277;52.724;6.516;2023-03-20T06:24:17;101800.88;;;7.31;80.64
78671;BME280;68277;52.724;6.516;2023-03-20T06:26:43;101762.13;;;7.14;80.07
78671;BME280;68277;52.724;6.516;2023-03-20T06:29:10;101773.59;;;7.22;80.12
78671;BME280;68277;52.724;6.516;2023-03-20T06:31:36;101788.59;;;7.33;79.22
78671;BME280;68277;52.724;6.516;2023-03-20T06:34:06;101779.78;;;7.27;79.71
78671;BME280;68277;52.724;6.516;2023-03-20T06:36:40;101800.94;;;7.45;79.22
78671;BME280;68277;52.724;6.516;2023-03-20T06:39:19;101730.53;;;7.06;79.54
78671;BME280;68277;52.724;6.516;2023-03-20T06:41:47;101759.59;;;7.24;79.54
78671;BME280;68277;52.724;6.516;2023-03-20T06:44:13;101808.91;;;7.57;79.32
78671;BME280;68277;52.724;6.516;2023-03-20T06:47:01;101809.81;;;7.59;79.32
78671;BME280;68277;52.724;6.516;2023-03-20T06:49:27;101815.09;;;7.61;79.42
78671;BME280;68277;52.724;6.516;2023-03-20T06:51:53;101775.44;;;7.38;78.17
78671;BME280;68277;52.724;6.516;2023-03-20T06:54:24;101798.34;;;7.48;78.61
78671;BME280;68277;52.724;6.516;2023-03-20T06:56:50;101706.78;;;6.99;78.25
78671;BME280;68277;52.724;6.516;2023-03-20T06:59:16;101694.47;;;6.98;78.16
78671;BME280;68277;52.724;6.516;2023-03-20T07:01:42;101724.44;;;7.15;78.08
78671;BME280;68277;52.724;6.516;2023-03-20T07:04:08;101757.03;;;7.39;78.24
78671;BME280;68277;52.724;6.516;2023-03-20T07:06:40;101706.91;;;7.20;78.18
78671;BME280;68277;52.724;6.516;2023-03-20T07:09:06;101765.00;;;7.53;77.46
78671;BME280;68277;52.724;6.516;2023-03-20T07:11:32;101676.13;;;7.04;77.72
78671;BME280;68277;52.724;6.516;2023-03-20T07:13:59;101737.75;;;7.49;77.25
78671;BME280;68277;52.724;6.516;2023-03-20T07:16:41;101765.97;;;7.76;77.72
78671;BME280;68277;52.724;6.516;2023-03-20T07:19:06;101739.59;;;7.70;76.78
78671;BME280;68277;52.724;6.516;2023-03-20T07:21:34;101782.69;;;7.81;76.45
78671;BME280;68277;52.724;6.516;2023-03-20T07:24:00;101798.53;;;7.84;76.67
78671;BME280;68277;52.724;6.516;2023-03-20T07:26:26;101824.91;;;7.93;76.83
78671;BME280;68277;52.724;6.516;2023-03-20T07:28:51;101799.34;;;7.74;76.52
78671;BME280;68277;52.724;6.516;2023-03-20T07:31:25;101824.88;;;7.84;76.06
78671;BME280;68277;52.724;6.516;2023-03-20T07:34:13;101793.19;;;7.72;77.09
78671;BME280;68277;52.724;6.516;2023-03-20T07:36:40;101818.75;;;7.93;77.40
78671;BME280;68277;52.724;6.516;2023-03-20T07:39:10;101785.28;;;7.72;75.84
78671;BME280;68277;52.724;6.516;2023-03-20T07:41:43;101787.94;;;7.80;76.81
78671;BME280;68277;52.724;6.516;2023-03-20T07:44:21;101763.31;;;7.69;75.60
78671;BME280;68277;52.724;6.516;2023-03-20T07:46:50;101817.91;;;8.06;76.09
78671;BME280;68277;52.724;6.516;2023-03-20T07:49:16;101750.13;;;7.64;76.22
78671;BME280;68277;52.724;6.516;2023-03-20T07:51:45;101733.41;;;7.57;75.59
78671;BME280;68277;52.724;6.516;2023-03-20T07:54:11;101809.09;;;7.99;76.48
78671;BME280;68277;52.724;6.516;2023-03-20T07:56:37;101721.09;;;7.52;75.83
78671;BME280;68277;52.724;6.516;2023-03-20T07:59:03;101840.88;;;8.27;75.58
78671;BME280;68277;52.724;6.516;2023-03-20T08:01:29;101820.59;;;8.22;75.95
78671;BME280;68277;52.724;6.516;2023-03-20T08:03:54;101835.63;;;8.37;75.33
78671;BME280;68277;52.724;6.516;2023-03-20T08:06:20;101769.59;;;8.13;75.48
78671;BME280;68277;52.724;6.516;2023-03-20T08:08:46;101778.41;;;8.16;73.85
78671;BME280;68277;52.724;6.516;2023-03-20T08:11:12;101768.72;;;8.11;75.19
78671;BME280;68277;52.724;6.516;2023-03-20T08:13:37;101835.69;;;8.61;73.85
78671;BME280;68277;52.724;6.516;2023-03-20T08:16:03;101775.78;;;8.22;74.07
78671;BME280;68277;52.724;6.516;2023-03-20T08:18:29;101833.91;;;8.65;73.98
78671;BME280;68277;52.724;6.516;2023-03-20T08:20:55;101839.22;;;8.71;74.07
78671;BME280;68277;52.724;6.516;2023-03-20T08:23:20;101753.00;;;8.34;73.90
78671;BME280;68277;52.724;6.516;2023-03-20T08:25:47;101741.56;;;8.38;73.78
78671;BME280;68277;52.724;6.516;2023-03-20T08:28:13;101843.63;;;9.16;71.69
78671;BME280;68277;52.724;6.516;2023-03-20T08:30:39;101740.66;;;8.87;72.12
78671;BME280;68277;52.724;6.516;2023-03-20T08:33:04;101775.78;;;9.34;71.18
78671;BME280;68277;52.724;6.516;2023-03-20T08:35:30;101767.78;;;9.54;70.51
78671;BME280;68277;52.724;6.516;2023-03-20T08:37:56;101782.44;;;10.32;69.17
78671;BME280;68277;52.724;6.516;2023-03-20T08:40:23;101724.81;;;10.69;65.96
78671;BME280;68277;52.724;6.516;2023-03-20T08:42:49;101714.13;;;10.81;63.52
78671;BME280;68277;52.724;6.516;2023-03-20T08:45:15;101830.41;;;11.05;64.47
78671;BME280;68277;52.724;6.516;2023-03-20T08:47:42;101824.63;;;10.53;64.90
78671;BME280;68277;52.724;6.516;2023-03-20T08:50:08;101756.22;;;9.82;65.78
78671;BME280;68277;52.724;6.516;2023-03-20T08:52:34;101774.78;;;9.69;68.06
78671;BME280;68277;52.724;6.516;2023-03-20T08:55:00;101739.69;;;9.36;66.46
78671;BME280;68277;52.724;6.516;2023-03-20T08:57:26;101734.41;;;9.39;68.93
78671;BME280;68277;52.724;6.516;2023-03-20T08:59:52;101739.59;;;9.54;68.08
78671;BME280;68277;52.724;6.516;2023-03-20T09:02:21;101803.78;;;9.96;67.39
78671;BME280;68277;52.724;6.516;2023-03-20T09:04:46;101767.56;;;10.04;65.29
78671;BME280;68277;52.724;6.516;2023-03-20T09:07:12;101797.34;;;10.45;65.63
78671;BME280;68277;52.724;6.516;2023-03-20T09:09:37;101786.50;;;10.80;63.78
78671;BME280;68277;52.724;6.516;2023-03-20T09:12:03;101805.38;;;11.38;62.02
78671;BME280;68277;52.724;6.516;2023-03-20T09:14:30;101801.06;;;11.28;61.29
78671;BME280;68277;52.724;6.516;2023-03-20T09:16:56;101801.63;;;11.58;60.68
78671;BME280;68277;52.724;6.516;2023-03-20T09:19:21;101774.13;;;11.68;60.04
78671;BME280;68277;52.724;6.516;2023-03-20T09:21:47;101712.38;;;11.57;58.59
78671;BME280;68277;52.724;6.516;2023-03-20T09:24:13;101804.44;;;12.18;59.39
78671;BME280;68277;52.724;6.516;2023-03-20T09:26:38;101700.50;;;11.19;60.10
78671;BME280;68277;52.724;6.516;2023-03-20T09:29:04;101764.25;;;11.02;61.84
78671;BME280;68277;52.724;6.516;2023-03-20T09:31:31;101808.31;;;11.09;62.54
78671;BME280;68277;52.724;6.516;2023-03-20T09:33:56;101771.00;;;11.29;63.48
78671;BME280;68277;52.724;6.516;2023-03-20T09:36:23;101778.69;;;11.56;63.19
78671;BME280;68277;52.724;6.516;2023-03-20T09:38:48;101782.13;;;11.62;61.92
78671;BME280;68277;52.724;6.516;2023-03-20T09:41:20;101790.75;;;11.83;62.97
78671;BME280;68277;52.724;6.516;2023-03-20T09:43:49;101786.34;;;11.82;60.20
78671;BME280;68277;52.724;6.516;2023-03-20T09:49:28;101796.16;;;11.74;60.90
78671;BME280;68277;52.724;6.516;2023-03-20T09:54:43;101780.38;;;12.31;58.07
78671;BME280;68277;52.724;6.516;2023-03-20T09:59:46;101775.41;;;12.07;59.41
78671;BME280;68277;52.724;6.516;2023-03-20T10:02:29;101803.59;;;12.17;60.98
78671;BME280;68277;52.724;6.516;2023-03-20T10:04:57;101820.47;;;12.10;58.88
78671;BME280;68277;52.724;6.516;2023-03-20T10:07:24;101792.28;;;12.03;61.36
78671;BME280;68277;52.724;6.516;2023-03-20T10:09:50;101801.88;;;12.12;60.37
78671;BME280;68277;52.724;6.516;2023-03-20T10:15:55;101811.69;;;11.25;62.89
78671;BME280;68277;52.724;6.516;2023-03-20T10:18:26;101819.97;;;10.88;64.17
78671;BME280;68277;52.724;6.516;2023-03-20T10:20:58;101817.56;;;10.57;64.54
78671;BME280;68277;52.724;6.516;2023-03-20T10:23:35;101801.94;;;10.19;65.76
78671;BME280;68277;52.724;6.516;2023-03-20T10:26:17;101824.81;;;10.29;66.08
78671;BME280;68277;52.724;6.516;2023-03-20T10:28:57;101815.13;;;10.23;66.11
78671;BME280;68277;52.724;6.516;2023-03-20T10:31:42;101820.44;;;10.17;65.11
78671;BME280;68277;52.724;6.516;2023-03-20T10:34:27;101823.97;;;10.16;66.69
78671;BME280;68277;52.724;6.516;2023-03-20T10:37:48;101817.78;;;10.23;66.63
78671;BME280;68277;52.724;6.516;2023-03-20T10:40:21;101800.19;;;10.06;66.82
78671;BME280;68277;52.724;6.516;2023-03-20T10:42:50;101789.56;;;10.10;66.32
78671;BME280;68277;52.724;6.516;2023-03-20T10:47:43;101761.44;;;10.00;66.10
78671;BME280;68277;52.724;6.516;2023-03-20T10:50:18;101821.22;;;10.35;66.46
78671;BME280;68277;52.724;6.516;2023-03-20T10:52:46;101818.56;;;10.38;66.25
78671;BME280;68277;52.724;6.516;2023-03-20T10:55:19;101783.41;;;10.08;65.92
78671;BME280;68277;52.724;6.516;2023-03-20T10:57:51;101809.00;;;10.14;66.31
78671;BME280;68277;52.724;6.516;2023-03-20T11:00:22;101732.56;;;9.56;66.75
78671;BME280;68277;52.724;6.516;2023-03-20T11:02:48;101805.47;;;10.04;66.12
78671;BME280;68277;52.724;6.516;2023-03-20T11:05:24;101754.56;;;9.64;66.38
78671;BME280;68277;52.724;6.516;2023-03-20T11:08:03;101822.22;;;10.09;67.27
78671;BME280;68277;52.724;6.516;2023-03-20T11:10:34;101773.00;;;9.81;67.06
78671;BME280;68277;52.724;6.516;2023-03-20T11:13:25;101805.50;;;10.03;66.68
78671;BME280;68277;52.724;6.516;2023-03-20T11:15:52;101800.19;;;10.01;66.47
78671;BME280;68277;52.724;6.516;2023-03-20T11:18:18;101822.22;;;10.03;66.37
78671;BME280;68277;52.724;6.516;2023-03-20T11:23:15;101824.06;;;9.94;66.56
78671;BME280;68277;52.724;6.516;2023-03-20T11:25:51;101824.97;;;9.87;67.29
78671;BME280;68277;52.724;6.516;2023-03-20T11:28:26;101786.22;;;9.74;67.31
78671;BME280;68277;52.724;6.516;2023-03-20T11:31:27;101812.59;;;9.87;67.56
78671;BME280;68277;52.724;6.516;2023-03-20T11:34:22;101798.50;;;9.90;67.62
78671;BME280;68277;52.724;6.516;2023-03-20T11:36:56;101804.63;;;9.96;67.29
78671;BME280;68277;52.724;6.516;2023-03-20T11:39:26;101793.25;;;9.87;68.15
78671;BME280;68277;52.724;6.516;2023-03-20T11:41:55;101788.75;;;9.99;68.00
78671;BME280;68277;52.724;6.516;2023-03-20T11:44:28;101812.50;;;10.17;67.40
78671;BME280;68277;52.724;6.516;2023-03-20T11:46:59;101767.56;;;10.04;67.46
78671;BME280;68277;52.724;6.516;2023-03-20T11:49:27;101804.47;;;10.36;66.84
78671;BME280;68277;52.724;6.516;2023-03-20T11:51:55;101764.03;;;10.14;66.64
78671;BME280;68277;52.724;6.516;2023-03-20T11:54:24;101811.56;;;10.29;66.72
78671;BME280;68277;52.724;6.516;2023-03-20T11:56:54;101809.78;;;10.32;66.83
78671;BME280;68277;52.724;6.516;2023-03-20T11:59:21;101695.47;;;9.73;65.91
78671;BME280;68277;52.724;6.516;2023-03-20T12:01:51;101784.28;;;10.21;66.54
78671;BME280;68277;52.724;6.516;2023-03-20T12:04:18;101819.47;;;10.35;66.26
78671;BME280;68277;52.724;6.516;2023-03-20T12:06:58;101695.53;;;9.64;65.16
78671;BME280;68277;52.724;6.516;2023-03-20T12:17:52;101800.06;;;10.35;67.02
78671;BME280;68277;52.724;6.516;2023-03-20T12:26:02;101767.63;;;9.92;69.35
78671;BME280;68277;52.724;6.516;2023-03-20T12:28:41;101747.41;;;9.80;68.87
78671;BME280;68277;52.724;6.516;2023-03-20T12:31:19;101715.72;;;9.76;69.00
78671;BME280;68277;52.724;6.516;2023-03-20T12:33:48;101795.72;;;10.20;68.22
78671;BME280;68277;52.724;6.516;2023-03-20T12:36:27;101741.31;;;9.72;68.49
78671;BME280;68277;52.724;6.516;2023-03-20T12:38:54;101721.06;;;9.70;69.07
78671;BME280;68277;52.724;6.516;2023-03-20T12:50:23;101763.44;;;9.51;71.11
78671;BME280;68277;52.724;6.516;2023-03-20T12:53:16;101766.00;;;9.62;71.02
78671;BME280;68277;52.724;6.516;2023-03-20T12:56:12;101778.28;;;9.75;71.33
78671;BME280;68277;52.724;6.516;2023-03-20T12:58:58;101779.16;;;9.79;72.55
78671;BME280;68277;52.724;6.516;2023-03-20T13:01:37;101771.34;;;9.51;73.06
78671;BME280;68277;52.724;6.516;2023-03-20T13:12:22;101777.56;;;9.37;76.78
78671;BME280;68277;52.724;6.516;2023-03-20T13:31:38;101640.44;;;8.49;77.06
78671;BME280;68277;52.724;6.516;2023-03-20T13:39:53;101679.09;;;8.79;77.54
78671;BME280;68277;52.724;6.516;2023-03-20T13:42:43;101637.78;;;8.57;77.49
78671;BME280;68277;52.724;6.516;2023-03-20T13:48:04;101752.06;;;9.10;78.67
78671;BME280;68277;52.724;6.516;2023-03-20T13:50:50;101705.47;;;8.67;79.38
78671;BME280;68277;52.724;6.516;2023-03-20T13:54:12;101752.09;;;8.93;80.85
78671;BME280;68277;52.724;6.516;2023-03-20T14:04:19;101680.00;;;8.46;80.84
78671;BME280;68277;52.724;6.516;2023-03-20T14:06:55;101738.03;;;8.79;81.54
78671;BME280;68277;52.724;6.516;2023-03-20T14:11:58;101657.97;;;8.24;80.95
78671;BME280;68277;52.724;6.516;2023-03-20T14:19:41;101658.88;;;8.43;82.53
78671;BME280;68277;52.724;6.516;2023-03-20T14:22:14;101627.22;;;8.22;81.26
78671;BME280;68277;52.724;6.516;2023-03-20T14:24:53;101745.94;;;8.84;81.11
78671;BME280;68277;52.724;6.516;2023-03-20T14:27:34;101634.25;;;8.11;82.58
78671;BME280;68277;52.724;6.516;2023-03-20T14:33:25;101636.91;;;8.11;82.70
78671;BME280;68277;52.724;6.516;2023-03-20T14:36:17;101672.94;;;8.24;82.20
78671;BME280;68277;52.724;6.516;2023-03-20T14:46:48;101727.47;;;8.60;84.43
78671;BME280;68277;52.724;6.516;2023-03-20T14:49:29;101725.75;;;8.62;82.51
78671;BME280;68277;52.724;6.516;2023-03-20T14:54:39;101609.66;;;7.97;83.41
78671;BME280;68277;52.724;6.516;2023-03-20T14:57:17;101614.91;;;7.94;84.68
78671;BME280;68277;52.724;6.516;2023-03-20T14:59:48;101701.09;;;8.42;83.99
78671;BME280;68277;52.724;6.516;2023-03-20T15:02:24;101670.28;;;8.22;85.78
78671;BME280;68277;52.724;6.516;2023-03-20T15:04:51;101608.75;;;7.92;84.25
78671;BME280;68277;52.724;6.516;2023-03-20T15:07:25;101636.91;;;8.09;86.18
78671;BME280;68277;52.724;6.516;2023-03-20T15:09:55;101626.34;;;8.02;85.79
78671;BME280;68277;52.724;6.516;2023-03-20T15:12:33;101656.22;;;8.20;86.71
78671;BME280;68277;52.724;6.516;2023-03-20T15:15:06;101594.69;;;7.82;86.01
78671;BME280;68277;52.724;6.516;2023-03-20T15:17:39;101618.47;;;8.00;87.06
78671;BME280;68277;52.724;6.516;2023-03-20T15:22:46;101633.41;;;8.12;86.97
78671;BME280;68277;52.724;6.516;2023-03-20T15:25:16;101652.75;;;8.27;87.49
78671;BME280;68277;52.724;6.516;2023-03-20T15:27:42;101664.19;;;8.27;87.00
78671;BME280;68277;52.724;6.516;2023-03-20T15:30:09;101611.41;;;7.99;86.98
78671;BME280;68277;52.724;6.516;2023-03-20T15:32:39;101593.81;;;7.85;88.47
78671;BME280;68277;52.724;6.516;2023-03-20T15:35:06;101573.59;;;7.70;88.39
78671;BME280;68277;52.724;6.516;2023-03-20T15:37:35;101679.13;;;8.32;88.97
78671;BME280;68277;52.724;6.516;2023-03-20T15:40:10;101627.22;;;8.13;88.28
78671;BME280;68277;52.724;6.516;2023-03-20T15:42:37;101629.88;;;8.23;89.47
78671;BME280;68277;52.724;6.516;2023-03-20T15:45:15;101640.47;;;8.27;88.71
78671;BME280;68277;52.724;6.516;2023-03-20T15:47:45;101620.19;;;8.25;88.39
78671;BME280;68277;52.724;6.516;2023-03-20T15:50:12;101620.25;;;8.29;88.92
78671;BME280;68277;52.724;6.516;2023-03-20T15:52:42;101675.59;;;8.66;89.23
78671;BME280;68277;52.724;6.516;2023-03-20T15:55:18;101644.81;;;8.58;89.12
78671;BME280;68277;52.724;6.516;2023-03-20T15:57:46;101589.47;;;8.27;86.13
78671;BME280;68277;52.724;6.516;2023-03-20T16:02:45;101576.25;;;8.11;88.39
78671;BME280;68277;52.724;6.516;2023-03-20T16:05:13;101615.84;;;8.27;88.58
78671;BME280;68277;52.724;6.516;2023-03-20T16:07:40;101618.47;;;8.31;89.89
78671;BME280;68277;52.724;6.516;2023-03-20T16:10:31;101670.34;;;8.50;89.47
78671;BME280;68277;52.724;6.516;2023-03-20T16:12:59;101553.44;;;7.87;88.44
78671;BME280;68277;52.724;6.516;2023-03-20T16:15:27;101614.06;;;8.16;90.07
78671;BME280;68277;52.724;6.516;2023-03-20T16:18:03;101549.03;;;7.79;88.67
78671;BME280;68277;52.724;6.516;2023-03-20T16:20:38;101550.78;;;7.80;89.55
78671;BME280;68277;52.724;6.516;2023-03-20T16:23:07;101551.66;;;7.76;89.63
78671;BME280;68277;52.724;6.516;2023-03-20T16:25:35;101608.78;;;8.02;88.69
78671;BME280;68277;52.724;6.516;2023-03-20T16:28:02;101600.88;;;8.04;90.03